createdAt,value
2018-02-16T00:00:24.809Z,0.00
2018-02-16T00:01:24.827Z,0.00
2018-02-16T00:02:24.839Z,0.00
2018-02-16T00:03:24.855Z,0.00
2018-02-16T00:04:24.879Z,0.00
2018-02-16T00:05:24.897Z,0.00
2018-02-16T00:06:24.908Z,0.00
2018-02-16T00:07:24.926Z,0.00
2018-02-16T00:08:24.950Z,0.00
2018-02-16T00:09:24.966Z,0.00
2018-02-16T00:10:24.979Z,0.00
2018-02-16T00:11:24.996Z,0.00
2018-02-16T00:12:25.020Z,0.00
2018-02-16T00:13:25.039Z,0.00
2018-02-16T00:14:25.049Z,0.00
2018-02-16T00:15:25.072Z,0.00
2018-02-16T00:16:25.083Z,0.00
2018-02-16T00:17:25.107Z,0.00
2018-02-16T00:18:25.117Z,0.00
2018-02-16T00:19:25.141Z,0.00
2018-02-16T00:20:25.153Z,0.00
2018-02-16T00:21:25.176Z,0.00
2018-02-16T00:22:25.188Z,0.00
2018-02-16T00:23:25.211Z,0.00
2018-02-16T00:24:25.223Z,0.00
2018-02-16T00:25:25.244Z,0.00
2018-02-16T00:26:25.256Z,0.00
2018-02-16T00:27:25.283Z,0.00
2018-02-16T00:28:25.293Z,0.00
2018-02-16T00:29:25.314Z,0.00
2018-02-16T00:30:25.326Z,0.00
2018-02-16T00:31:25.343Z,0.00
2018-02-16T00:32:25.367Z,0.00
2018-02-16T00:33:25.379Z,0.00
2018-02-16T00:34:25.400Z,0.00
2018-02-16T00:35:25.412Z,0.00
2018-02-16T00:36:25.435Z,0.00
2018-02-16T00:37:25.445Z,0.00
2018-02-16T00:38:25.469Z,0.00
2018-02-16T00:39:25.480Z,0.00
2018-02-16T00:40:25.504Z,0.00
2018-02-16T00:41:25.514Z,0.00
2018-02-16T00:42:25.537Z,0.00
2018-02-16T00:43:25.551Z,0.00
2018-02-16T00:44:25.572Z,0.00
2018-02-16T00:45:25.584Z,0.00
2018-02-16T00:46:25.606Z,0.00
2018-02-16T00:47:25.618Z,0.00
2018-02-16T00:48:25.640Z,0.00
2018-02-16T00:49:25.653Z,0.00
2018-02-16T00:50:25.675Z,0.00
2018-02-16T00:51:25.686Z,0.00
2018-02-16T00:52:25.702Z,0.00
2018-02-16T00:53:25.725Z,0.00
2018-02-16T00:54:25.742Z,0.00
2018-02-16T00:55:25.754Z,0.00
2018-02-16T00:56:25.777Z,0.00
2018-02-16T00:57:25.792Z,0.00
2018-02-16T00:58:25.811Z,0.00
2018-02-16T00:59:25.828Z,0.00
2018-02-16T01:00:25.845Z,0.00
2018-02-16T01:01:25.857Z,0.00
2018-02-16T01:02:25.879Z,0.00
2018-02-16T01:03:25.896Z,0.00
2018-02-16T01:04:25.908Z,0.00
2018-02-16T01:05:25.930Z,0.00
2018-02-16T01:06:25.942Z,0.00
2018-02-16T01:07:25.963Z,0.00
2018-02-16T01:08:25.976Z,0.00
2018-02-16T01:09:25.997Z,0.00
2018-02-16T01:10:26.010Z,0.00
2018-02-16T01:11:26.033Z,0.00
2018-02-16T01:12:26.045Z,0.00
2018-02-16T01:13:26.064Z,0.00
2018-02-16T01:14:26.084Z,0.00
2018-02-16T01:15:26.096Z,0.00
2018-02-16T01:16:26.114Z,0.00
2018-02-16T01:17:26.129Z,0.00
2018-02-16T01:18:26.147Z,0.00
2018-02-16T01:19:26.174Z,0.00
2018-02-16T01:20:26.182Z,0.00
2018-02-16T01:21:26.199Z,0.00
2018-02-16T01:22:26.220Z,0.00
2018-02-16T01:23:26.238Z,0.00
2018-02-16T01:24:26.250Z,0.00
2018-02-16T01:25:26.266Z,0.00
2018-02-16T01:26:26.290Z,0.00
2018-02-16T01:27:26.302Z,0.00
2018-02-16T01:28:26.319Z,0.00
2018-02-16T01:29:26.340Z,0.00
2018-02-16T01:30:26.355Z,0.00
2018-02-16T01:31:26.369Z,0.00
2018-02-16T01:32:26.393Z,0.00
2018-02-16T01:33:26.409Z,0.00
2018-02-16T01:34:26.425Z,0.00
2018-02-16T01:35:26.438Z,0.00
2018-02-16T01:36:26.460Z,0.00
2018-02-16T01:37:26.480Z,0.00
2018-02-16T01:38:26.494Z,0.00
2018-02-16T01:39:26.506Z,0.00
2018-02-16T01:40:26.531Z,0.00
2018-02-16T01:41:26.539Z,0.00
2018-02-16T01:42:26.563Z,0.00
2018-02-16T01:43:26.574Z,0.00
2018-02-16T01:44:26.591Z,0.00
2018-02-16T01:45:26.607Z,0.00
2018-02-16T01:46:26.631Z,0.00
2018-02-16T01:47:26.648Z,0.00
2018-02-16T01:48:26.659Z,0.00
2018-02-16T01:49:26.676Z,0.00
2018-02-16T01:50:26.698Z,0.00
2018-02-16T01:51:26.716Z,0.00
2018-02-16T01:52:26.732Z,0.00
2018-02-16T01:53:26.749Z,0.00
2018-02-16T01:54:26.764Z,0.00
2018-02-16T01:55:26.783Z,0.00
2018-02-16T01:56:26.794Z,0.00
2018-02-16T01:57:26.817Z,0.00
2018-02-16T01:58:26.828Z,0.00
2018-02-16T01:59:26.846Z,0.00
2018-02-16T02:00:26.862Z,0.00
2018-02-16T02:01:26.883Z,0.00
2018-02-16T02:02:26.894Z,0.00
2018-02-16T02:03:26.918Z,0.00
2018-02-16T02:04:26.932Z,0.00
2018-02-16T02:05:26.947Z,0.00
2018-02-16T02:06:26.962Z,0.00
2018-02-16T02:07:26.990Z,0.00
2018-02-16T02:08:26.999Z,0.00
2018-02-16T02:09:27.013Z,0.00
2018-02-16T02:10:27.036Z,0.00
2018-02-16T02:11:27.054Z,0.00
2018-02-16T02:12:27.065Z,0.00
2018-02-16T02:13:27.081Z,0.00
2018-02-16T02:14:27.104Z,0.00
2018-02-16T02:15:27.120Z,0.00
2018-02-16T02:16:27.138Z,0.00
2018-02-16T02:17:27.148Z,0.00
2018-02-16T02:18:27.171Z,0.00
2018-02-16T02:19:27.182Z,0.00
2018-02-16T02:20:27.204Z,0.00
2018-02-16T02:21:27.221Z,0.00
2018-02-16T02:22:27.238Z,0.00
2018-02-16T02:23:27.255Z,0.00
2018-02-16T02:24:27.266Z,0.00
2018-02-16T02:25:27.283Z,0.00
2018-02-16T02:26:27.305Z,0.00
2018-02-16T02:27:27.322Z,0.00
2018-02-16T02:28:27.334Z,0.00
2018-02-16T02:29:27.350Z,0.00
2018-02-16T02:30:27.372Z,0.00
2018-02-16T02:31:27.384Z,0.00
2018-02-16T02:32:27.401Z,0.00
2018-02-16T02:33:27.421Z,0.00
2018-02-16T02:34:27.439Z,0.00
2018-02-16T02:35:27.456Z,0.00
2018-02-16T02:36:27.467Z,0.00
2018-02-16T02:37:27.489Z,0.00
2018-02-16T02:38:27.501Z,0.00
2018-02-16T02:39:27.520Z,0.00
2018-02-16T02:40:27.538Z,0.00
2018-02-16T02:41:27.553Z,0.00
2018-02-16T02:42:27.571Z,0.00
2018-02-16T02:43:27.584Z,0.00
2018-02-16T02:44:27.606Z,0.00
2018-02-16T02:45:27.617Z,0.00
2018-02-16T02:46:27.640Z,0.00
2018-02-16T02:47:27.655Z,0.00
2018-02-16T02:48:27.667Z,0.00
2018-02-16T02:49:27.682Z,0.00
2018-02-16T02:50:27.700Z,0.00
2018-02-16T02:51:27.721Z,0.00
2018-02-16T02:52:27.739Z,0.00
2018-02-16T02:53:27.750Z,0.00
2018-02-16T02:54:27.772Z,0.00
2018-02-16T02:55:27.796Z,0.00
2018-02-16T02:56:27.801Z,0.00
2018-02-16T02:57:27.823Z,0.00
2018-02-16T02:58:27.833Z,0.00
2018-02-16T02:59:27.856Z,0.00
2018-02-16T03:00:27.868Z,0.00
2018-02-16T03:01:27.889Z,0.00
2018-02-16T03:02:27.902Z,0.00
2018-02-16T03:03:27.923Z,0.00
2018-02-16T03:04:27.936Z,0.00
2018-02-16T03:05:27.951Z,0.00
2018-02-16T03:06:27.973Z,0.00
2018-02-16T03:07:27.989Z,0.00
2018-02-16T03:08:28.001Z,0.00
2018-02-16T03:09:28.023Z,0.00
2018-02-16T03:10:28.035Z,0.00
2018-02-16T03:11:28.096Z,0.00
2018-02-16T03:12:28.074Z,0.00
2018-02-16T03:13:28.090Z,0.00
2018-02-16T03:14:28.101Z,0.00
2018-02-16T03:15:28.118Z,0.00
2018-02-16T03:16:28.139Z,0.00
2018-02-16T03:17:28.156Z,0.00
2018-02-16T03:18:28.169Z,0.00
2018-02-16T03:19:28.184Z,0.00
2018-02-16T03:20:28.207Z,0.00
2018-02-16T03:21:28.217Z,0.00
2018-02-16T03:22:28.240Z,0.00
2018-02-16T03:23:28.252Z,0.00
2018-02-16T03:24:28.274Z,0.00
2018-02-16T03:25:28.292Z,0.00
2018-02-16T03:26:28.301Z,0.00
2018-02-16T03:27:28.317Z,0.00
2018-02-16T03:28:28.340Z,0.00
2018-02-16T03:29:28.356Z,0.00
2018-02-16T03:30:28.368Z,0.00
2018-02-16T03:31:28.385Z,0.00
2018-02-16T03:32:28.407Z,0.00
2018-02-16T03:33:28.423Z,0.00
2018-02-16T03:34:28.433Z,0.00
2018-02-16T03:35:28.451Z,0.00
2018-02-16T03:36:28.472Z,0.00
2018-02-16T03:37:28.484Z,0.00
2018-02-16T03:38:28.506Z,0.00
2018-02-16T03:39:28.518Z,0.00
2018-02-16T03:40:28.540Z,0.00
2018-02-16T03:41:28.555Z,0.00
2018-02-16T03:42:28.568Z,0.00
2018-02-16T03:43:28.587Z,0.00
2018-02-16T03:44:28.607Z,0.00
2018-02-16T03:45:28.618Z,0.00
2018-02-16T03:46:28.640Z,0.00
2018-02-16T03:47:28.649Z,0.00
2018-02-16T03:48:28.673Z,0.00
2018-02-16T03:49:28.684Z,0.00
2018-02-16T03:50:28.705Z,0.00
2018-02-16T03:51:28.716Z,0.00
2018-02-16T03:52:28.742Z,0.00
2018-02-16T03:53:28.755Z,0.00
2018-02-16T03:54:28.766Z,0.00
2018-02-16T03:55:28.784Z,0.00
2018-02-16T03:56:28.806Z,0.00
2018-02-16T03:57:28.817Z,0.00
2018-02-16T03:58:28.840Z,0.00
2018-02-16T03:59:28.855Z,0.00
2018-02-16T04:00:28.867Z,0.00
2018-02-16T04:01:28.891Z,0.00
2018-02-16T04:02:28.899Z,0.00
2018-02-16T04:03:28.920Z,0.00
2018-02-16T04:04:28.933Z,0.00
2018-02-16T04:05:28.954Z,0.00
2018-02-16T04:06:28.966Z,0.00
2018-02-16T04:07:28.982Z,0.00
2018-02-16T04:08:29.004Z,0.00
2018-02-16T04:09:29.016Z,0.00
2018-02-16T04:10:29.037Z,0.00
2018-02-16T04:11:29.051Z,0.00
2018-02-16T04:12:29.070Z,0.00
2018-02-16T04:13:29.080Z,0.00
2018-02-16T04:14:29.104Z,0.00
2018-02-16T04:15:29.114Z,0.00
2018-02-16T04:16:29.137Z,0.00
2018-02-16T04:17:29.153Z,0.00
2018-02-16T04:18:29.166Z,0.00
2018-02-16T04:19:29.180Z,0.00
2018-02-16T04:20:29.204Z,0.00
2018-02-16T04:21:29.218Z,0.00
2018-02-16T04:22:29.230Z,0.00
2018-02-16T04:23:29.253Z,0.00
2018-02-16T04:24:29.263Z,0.00
2018-02-16T04:25:29.286Z,0.00
2018-02-16T04:26:29.297Z,0.00
2018-02-16T04:27:29.319Z,0.00
2018-02-16T04:28:29.330Z,0.00
2018-02-16T04:29:29.352Z,0.00
2018-02-16T04:30:29.362Z,0.00
2018-02-16T04:31:29.381Z,0.00
2018-02-16T04:32:29.401Z,0.00
2018-02-16T04:33:29.418Z,0.00
2018-02-16T04:34:29.428Z,0.00
2018-02-16T04:35:29.446Z,0.00
2018-02-16T04:36:29.467Z,0.00
2018-02-16T04:37:29.484Z,0.00
2018-02-16T04:38:29.495Z,0.00
2018-02-16T04:39:29.518Z,0.00
2018-02-16T04:40:29.528Z,0.00
2018-02-16T04:41:29.544Z,0.00
2018-02-16T04:42:29.566Z,0.00
2018-02-16T04:43:29.622Z,0.00
2018-02-16T04:44:29.595Z,0.00
2018-02-16T04:45:29.611Z,0.00
2018-02-16T04:46:29.635Z,0.00
2018-02-16T04:47:29.645Z,0.00
2018-02-16T04:48:29.666Z,0.00
2018-02-16T04:49:29.678Z,0.00
2018-02-16T04:50:29.699Z,0.00
2018-02-16T04:51:29.712Z,0.00
2018-02-16T04:52:29.733Z,0.00
2018-02-16T04:53:29.743Z,0.00
2018-02-16T04:54:29.765Z,0.00
2018-02-16T04:55:29.777Z,0.00
2018-02-16T04:56:29.798Z,0.00
2018-02-16T04:57:29.814Z,0.00
2018-02-16T04:58:29.826Z,0.00
2018-02-16T04:59:29.844Z,0.00
2018-02-16T05:00:29.866Z,0.00
2018-02-16T05:01:29.882Z,0.00
2018-02-16T05:02:29.892Z,0.00
2018-02-16T05:03:29.909Z,0.00
2018-02-16T05:04:29.931Z,0.00
2018-02-16T05:05:29.943Z,0.00
2018-02-16T05:06:29.965Z,0.00
2018-02-16T05:07:29.975Z,0.00
2018-02-16T05:08:29.992Z,0.00
2018-02-16T05:09:30.015Z,0.00
2018-02-16T05:10:30.030Z,0.00
2018-02-16T05:11:30.047Z,0.00
2018-02-16T05:12:30.089Z,0.00
2018-02-16T05:13:30.074Z,0.00
2018-02-16T05:14:30.096Z,0.00
2018-02-16T05:15:30.114Z,0.00
2018-02-16T05:16:30.125Z,0.00
2018-02-16T05:17:30.140Z,0.00
2018-02-16T05:18:30.163Z,0.00
2018-02-16T05:19:30.180Z,0.00
2018-02-16T05:20:30.190Z,0.00
2018-02-16T05:21:30.212Z,0.00
2018-02-16T05:22:30.224Z,0.00
2018-02-16T05:23:30.245Z,0.00
2018-02-16T05:24:30.262Z,0.00
2018-02-16T05:25:30.272Z,0.00
2018-02-16T05:26:30.289Z,0.00
2018-02-16T05:27:30.307Z,0.00
2018-02-16T05:28:30.329Z,0.00
2018-02-16T05:29:30.338Z,0.00
2018-02-16T05:30:30.361Z,0.00
2018-02-16T05:31:30.372Z,0.00
2018-02-16T05:32:30.394Z,0.00
2018-02-16T05:33:30.404Z,0.00
2018-02-16T05:34:30.426Z,0.00
2018-02-16T05:35:30.439Z,0.00
2018-02-16T05:36:30.461Z,0.00
2018-02-16T05:37:30.476Z,0.00
2018-02-16T05:38:30.488Z,0.00
2018-02-16T05:39:30.504Z,0.00
2018-02-16T05:40:30.521Z,0.00
2018-02-16T05:41:30.535Z,0.00
2018-02-16T05:42:30.558Z,0.00
2018-02-16T05:43:30.575Z,0.00
2018-02-16T05:44:30.586Z,0.00
2018-02-16T05:45:30.608Z,0.00
2018-02-16T05:46:30.618Z,0.00
2018-02-16T05:47:30.641Z,0.00
2018-02-16T05:48:30.652Z,0.00
2018-02-16T05:49:30.673Z,0.00
2018-02-16T05:50:30.683Z,0.00
2018-02-16T05:51:30.708Z,0.00
2018-02-16T05:52:30.718Z,0.00
2018-02-16T05:53:30.740Z,0.00
2018-02-16T05:54:30.758Z,0.00
2018-02-16T05:55:30.773Z,0.00
2018-02-16T05:56:30.789Z,0.00
2018-02-16T05:57:30.805Z,0.00
2018-02-16T05:58:30.815Z,0.00
2018-02-16T05:59:30.837Z,0.00
2018-02-16T06:00:30.849Z,0.00
2018-02-16T06:01:30.864Z,0.00
2018-02-16T06:02:30.888Z,0.00
2018-02-16T06:03:30.903Z,0.00
2018-02-16T06:04:30.916Z,0.00
2018-02-16T06:05:30.930Z,0.00
2018-02-16T06:06:30.953Z,4.00
2018-02-16T06:07:30.969Z,4.00
2018-02-16T06:08:30.985Z,0.00
2018-02-16T06:09:31.000Z,0.00
2018-02-16T06:10:31.011Z,4.00
2018-02-16T06:11:31.029Z,4.00
2018-02-16T06:12:31.049Z,4.00
2018-02-16T06:13:31.061Z,4.00
2018-02-16T06:14:31.076Z,8.00
2018-02-16T06:15:31.099Z,8.00
2018-02-16T06:16:31.112Z,8.00
2018-02-16T06:17:31.125Z,8.00
2018-02-16T06:18:31.148Z,12.00
2018-02-16T06:19:31.165Z,16.00
2018-02-16T06:20:31.174Z,16.00
2018-02-16T06:21:31.192Z,20.00
2018-02-16T06:22:31.213Z,20.00
2018-02-16T06:23:31.224Z,28.00
2018-02-16T06:24:31.246Z,32.00
2018-02-16T06:25:31.262Z,36.00
2018-02-16T06:26:31.272Z,44.00
2018-02-16T06:27:31.289Z,48.00
2018-02-16T06:28:31.306Z,52.00
2018-02-16T06:29:31.321Z,64.00
2018-02-16T06:30:31.338Z,72.00
2018-02-16T06:31:31.354Z,84.00
2018-02-16T06:32:31.377Z,92.00
2018-02-16T06:33:31.387Z,108.00
2018-02-16T06:34:31.409Z,124.00
2018-02-16T06:35:31.420Z,136.00
2018-02-16T06:36:31.443Z,156.00
2018-02-16T06:37:31.453Z,172.00
2018-02-16T06:38:31.475Z,188.00
2018-02-16T06:39:31.491Z,208.00
2018-02-16T06:40:31.502Z,232.00
2018-02-16T06:41:31.524Z,256.00
2018-02-16T06:42:31.541Z,280.00
2018-02-16T06:43:31.556Z,308.00
2018-02-16T06:44:31.574Z,332.00
2018-02-16T06:45:31.616Z,364.00
2018-02-16T06:46:31.600Z,392.00
2018-02-16T06:47:31.623Z,428.00
2018-02-16T06:48:31.633Z,460.00
2018-02-16T06:49:31.648Z,496.00
2018-02-16T06:50:31.671Z,528.00
2018-02-16T06:51:31.687Z,564.00
2018-02-16T06:52:31.699Z,608.00
2018-02-16T06:53:31.722Z,644.00
2018-02-16T06:54:31.731Z,692.00
2018-02-16T06:55:31.752Z,736.00
2018-02-16T06:56:31.764Z,780.00
2018-02-16T06:57:31.779Z,828.00
2018-02-16T06:58:31.797Z,876.00
2018-02-16T06:59:31.820Z,928.00
2018-02-16T07:00:31.836Z,992.00
2018-02-16T07:01:31.845Z,1044.00
2018-02-16T07:02:31.868Z,1104.00
2018-02-16T07:03:31.884Z,1164.00
2018-02-16T07:04:31.896Z,1228.00
2018-02-16T07:05:31.916Z,1296.00
2018-02-16T07:06:31.930Z,1376.00
2018-02-16T07:07:31.949Z,1436.00
2018-02-16T07:08:31.966Z,1516.00
2018-02-16T07:09:31.977Z,1596.00
2018-02-16T07:10:32.000Z,1676.00
2018-02-16T07:11:32.016Z,1736.00
2018-02-16T07:12:32.027Z,1860.00
2018-02-16T07:13:32.043Z,1948.00
2018-02-16T07:14:32.064Z,2140.00
2018-02-16T07:15:32.080Z,2164.00
2018-02-16T07:16:32.091Z,2208.00
2018-02-16T07:17:32.110Z,2324.00
2018-02-16T07:18:32.131Z,2448.00
2018-02-16T07:19:32.141Z,2544.00
2018-02-16T07:20:32.163Z,2592.00
2018-02-16T07:21:32.180Z,2668.00
2018-02-16T07:22:32.190Z,2888.00
2018-02-16T07:23:32.212Z,2892.00
2018-02-16T07:24:32.230Z,2976.00
2018-02-16T07:25:32.246Z,2932.00
2018-02-16T07:26:32.257Z,3120.00
2018-02-16T07:27:32.275Z,3256.00
2018-02-16T07:28:32.297Z,3248.00
2018-02-16T07:29:32.312Z,3356.00
2018-02-16T07:30:32.323Z,3464.00
2018-02-16T07:31:32.340Z,3676.00
2018-02-16T07:32:32.363Z,3672.00
2018-02-16T07:33:32.380Z,3772.00
2018-02-16T07:34:32.390Z,3884.00
2018-02-16T07:35:32.407Z,4128.00
2018-02-16T07:36:32.432Z,4052.00
2018-02-16T07:37:32.439Z,4372.00
2018-02-16T07:38:32.461Z,4232.00
2018-02-16T07:39:32.473Z,4532.00
2018-02-16T07:40:32.497Z,4736.00
2018-02-16T07:41:32.509Z,4712.00
2018-02-16T07:42:32.530Z,4828.00
2018-02-16T07:43:32.540Z,4992.00
2018-02-16T07:44:32.563Z,5336.00
2018-02-16T07:45:32.574Z,5288.00
2018-02-16T07:46:32.596Z,5240.00
2018-02-16T07:47:32.608Z,5824.00
2018-02-16T07:48:32.630Z,5740.00
2018-02-16T07:49:32.640Z,5392.00
2018-02-16T07:50:32.663Z,5308.00
2018-02-16T07:51:32.683Z,6220.00
2018-02-16T07:52:32.692Z,6972.00
2018-02-16T07:53:32.713Z,6000.00
2018-02-16T07:54:32.724Z,5472.00
2018-02-16T07:55:32.788Z,5948.00
2018-02-16T07:56:32.759Z,6784.00
2018-02-16T07:57:32.780Z,6748.00
2018-02-16T07:58:32.792Z,6664.00
2018-02-16T07:59:32.815Z,6452.00
2018-02-16T08:00:32.826Z,5912.00
2018-02-16T08:01:32.848Z,6392.00
2018-02-16T08:02:32.860Z,7728.00
2018-02-16T08:03:32.883Z,7368.00
2018-02-16T08:04:32.895Z,8752.00
2018-02-16T08:05:32.918Z,7540.00
2018-02-16T08:06:32.928Z,6728.00
2018-02-16T08:07:32.944Z,7080.00
2018-02-16T08:08:32.969Z,7152.00
2018-02-16T08:09:32.984Z,7592.00
2018-02-16T08:10:32.995Z,7772.00
2018-02-16T08:11:33.013Z,8020.00
2018-02-16T08:12:33.037Z,7512.00
2018-02-16T08:13:33.051Z,8852.00
2018-02-16T08:14:33.064Z,8036.00
2018-02-16T08:15:33.081Z,7828.00
2018-02-16T08:16:33.106Z,8656.00
2018-02-16T08:17:33.120Z,8100.00
2018-02-16T08:18:33.133Z,8372.00
2018-02-16T08:19:33.149Z,9044.00
2018-02-16T08:20:33.172Z,8796.00
2018-02-16T08:21:33.190Z,8816.00
2018-02-16T08:22:33.201Z,9000.00
2018-02-16T08:23:33.220Z,9096.00
2018-02-16T08:24:33.242Z,9196.00
2018-02-16T08:25:33.254Z,8988.00
2018-02-16T08:26:33.276Z,9364.00
2018-02-16T08:27:33.288Z,9544.00
2018-02-16T08:28:33.311Z,10176.00
2018-02-16T08:29:33.329Z,10216.00
2018-02-16T08:30:33.340Z,9996.00
2018-02-16T08:31:33.361Z,10580.00
2018-02-16T08:32:33.380Z,9656.00
2018-02-16T08:33:33.392Z,11208.00
2018-02-16T08:34:33.415Z,9796.00
2018-02-16T08:35:33.427Z,10676.00
2018-02-16T08:36:33.450Z,10412.00
2018-02-16T08:37:33.462Z,10208.00
2018-02-16T08:38:33.485Z,11268.00
2018-02-16T08:39:33.497Z,11624.00
2018-02-16T08:40:33.521Z,10612.00
2018-02-16T08:41:33.537Z,12024.00
2018-02-16T08:42:33.550Z,11704.00
2018-02-16T08:43:33.569Z,12548.00
2018-02-16T08:44:33.594Z,11924.00
2018-02-16T08:45:33.603Z,12780.00
2018-02-16T08:46:33.626Z,11988.00
2018-02-16T08:47:33.645Z,11460.00
2018-02-16T08:48:33.656Z,12344.00
2018-02-16T08:49:33.681Z,12208.00
2018-02-16T08:50:33.691Z,11964.00
2018-02-16T08:51:33.716Z,11516.00
2018-02-16T08:52:33.729Z,13980.00
2018-02-16T08:53:33.754Z,13128.00
2018-02-16T08:54:33.764Z,11224.00
2018-02-16T08:55:33.787Z,14236.00
2018-02-16T08:56:33.800Z,13980.00
2018-02-16T08:57:33.816Z,12300.00
2018-02-16T08:58:33.844Z,14256.00
2018-02-16T08:59:33.859Z,13704.00
2018-02-16T09:00:33.871Z,15572.00
2018-02-16T09:01:33.897Z,14540.00
2018-02-16T09:02:33.907Z,14476.00
2018-02-16T09:03:33.926Z,16768.00
2018-02-16T09:04:33.950Z,30816.00
2018-02-16T09:05:33.966Z,65344.00
2018-02-16T09:06:33.981Z,56192.00
2018-02-16T09:07:33.998Z,57984.00
2018-02-16T09:08:34.022Z,67392.00
2018-02-16T09:09:34.041Z,49920.00
2018-02-16T09:10:34.054Z,39776.00
2018-02-16T09:11:34.074Z,69184.00
2018-02-16T09:12:34.099Z,52576.00
2018-02-16T09:13:34.112Z,40384.00
2018-02-16T09:14:34.137Z,69984.00
2018-02-16T09:15:34.153Z,66144.00
2018-02-16T09:16:34.180Z,55648.00
2018-02-16T09:17:34.201Z,68032.00
2018-02-16T09:18:34.219Z,48384.00
2018-02-16T09:19:34.242Z,60384.00
2018-02-16T09:20:34.266Z,71456.00
2018-02-16T09:21:34.280Z,10624.00
2018-02-16T09:22:34.308Z,12712.00
2018-02-16T09:23:34.326Z,78496.00
2018-02-16T09:24:34.354Z,62912.00
2018-02-16T09:25:34.376Z,49056.00
2018-02-16T09:26:34.399Z,15112.00
2018-02-16T09:27:34.421Z,43552.00
2018-02-16T09:28:34.438Z,79328.00
2018-02-16T09:29:34.461Z,13936.00
2018-02-16T09:30:34.490Z,32672.00
2018-02-16T09:31:34.513Z,32288.00
2018-02-16T09:32:34.531Z,30784.00
2018-02-16T09:33:34.559Z,71040.00
2018-02-16T09:34:34.578Z,55328.00
2018-02-16T09:35:34.606Z,24832.00
2018-02-16T09:36:34.624Z,66336.00
2018-02-16T09:37:34.653Z,23040.00
2018-02-16T09:38:34.670Z,42656.00
2018-02-16T09:39:34.699Z,20256.00
2018-02-16T09:40:34.725Z,71840.00
2018-02-16T09:41:34.741Z,33600.00
2018-02-16T09:42:34.763Z,50464.00
2018-02-16T09:43:34.792Z,21888.00
2018-02-16T09:44:34.812Z,16284.00
2018-02-16T09:45:34.839Z,60288.00
2018-02-16T09:46:34.858Z,70176.00
2018-02-16T09:47:34.885Z,22656.00
2018-02-16T09:48:34.904Z,46080.00
2018-02-16T09:49:34.925Z,62240.00
2018-02-16T09:50:34.955Z,20896.00
2018-02-16T09:51:34.977Z,36480.00
2018-02-16T09:52:34.997Z,29728.00
2018-02-16T09:53:35.017Z,62560.00
2018-02-16T09:54:35.042Z,80896.00
2018-02-16T09:55:35.073Z,87808.00
2018-02-16T09:56:35.093Z,16900.00
2018-02-16T09:57:35.110Z,84192.00
2018-02-16T09:58:35.139Z,60288.00
2018-02-16T09:59:35.163Z,68640.00
2018-02-16T10:00:35.181Z,20384.00
2018-02-16T10:01:35.204Z,83360.00
2018-02-16T10:02:35.233Z,83072.00
2018-02-16T10:03:35.256Z,47936.00
2018-02-16T10:04:35.276Z,42304.00
2018-02-16T10:05:35.300Z,26816.00
2018-02-16T10:06:35.332Z,44672.00
2018-02-16T10:07:35.349Z,26304.00
2018-02-16T10:08:35.378Z,72480.00
2018-02-16T10:09:35.396Z,25408.00
2018-02-16T10:10:35.422Z,23104.00
2018-02-16T10:11:35.445Z,23648.00
2018-02-16T10:12:35.471Z,23648.00
2018-02-16T10:13:35.494Z,22944.00
2018-02-16T10:14:35.527Z,23936.00
2018-02-16T10:15:35.545Z,17920.00
2018-02-16T10:16:35.574Z,72064.00
2018-02-16T10:17:35.591Z,31200.00
2018-02-16T10:18:35.621Z,9004.00
2018-02-16T10:19:35.640Z,54688.00
2018-02-16T10:20:35.669Z,12748.00
2018-02-16T10:21:35.687Z,10800.00
2018-02-16T10:22:35.719Z,77856.00
2018-02-16T10:23:35.736Z,15700.00
2018-02-16T10:24:35.767Z,19776.00
2018-02-16T10:25:35.790Z,61280.00
2018-02-16T10:26:35.809Z,27616.00
2018-02-16T10:27:35.829Z,88160.00
2018-02-16T10:28:35.853Z,36192.00
2018-02-16T10:29:35.877Z,13580.00
2018-02-16T10:30:35.901Z,77728.00
2018-02-16T10:31:35.932Z,90240.00
2018-02-16T10:32:35.946Z,86784.00
2018-02-16T10:33:35.976Z,88992.00
2018-02-16T10:34:35.993Z,34176.00
2018-02-16T10:35:36.024Z,81248.00
2018-02-16T10:36:36.040Z,21984.00
2018-02-16T10:37:36.070Z,72960.00
2018-02-16T10:38:36.087Z,87776.00
2018-02-16T10:39:36.120Z,38208.00
2018-02-16T10:40:36.136Z,87424.00
2018-02-16T10:41:36.158Z,37120.00
2018-02-16T10:42:36.190Z,88928.00
2018-02-16T10:43:36.215Z,95712.00
2018-02-16T10:44:36.239Z,86432.00
2018-02-16T10:45:36.263Z,77504.00
2018-02-16T10:46:36.291Z,22400.00
2018-02-16T10:47:36.313Z,28352.00
2018-02-16T10:48:36.332Z,96096.00
2018-02-16T10:49:36.356Z,90240.00
2018-02-16T10:50:36.388Z,24992.00
2018-02-16T10:51:36.463Z,15088.00
2018-02-16T10:52:36.432Z,28928.00
2018-02-16T10:53:36.455Z,70720.00
2018-02-16T10:54:36.485Z,16196.00
2018-02-16T10:55:36.517Z,68640.00
2018-02-16T10:56:36.537Z,92864.00
2018-02-16T10:57:36.561Z,84704.00
2018-02-16T10:58:36.587Z,71200.00
2018-02-16T10:59:36.606Z,77056.00
2018-02-16T11:00:36.629Z,67520.00
2018-02-16T11:01:36.660Z,88928.00
2018-02-16T11:02:36.683Z,15684.00
2018-02-16T11:03:36.710Z,73952.00
2018-02-16T11:04:36.731Z,24992.00
2018-02-16T11:05:36.758Z,21184.00
2018-02-16T11:06:36.783Z,80448.00
2018-02-16T11:07:36.808Z,45600.00
2018-02-16T11:08:36.829Z,82880.00
2018-02-16T11:09:36.853Z,15268.00
2018-02-16T11:10:36.881Z,11904.00
2018-02-16T11:11:36.908Z,10800.00
2018-02-16T11:12:36.926Z,9520.00
2018-02-16T11:13:36.950Z,16248.00
2018-02-16T11:14:36.974Z,15292.00
2018-02-16T11:15:37.003Z,18624.00
2018-02-16T11:16:37.028Z,76864.00
2018-02-16T11:17:37.045Z,85472.00
2018-02-16T11:18:37.077Z,15424.00
2018-02-16T11:19:37.093Z,92640.00
2018-02-16T11:20:37.124Z,86752.00
2018-02-16T11:21:37.141Z,86080.00
2018-02-16T11:22:37.169Z,95136.00
2018-02-16T11:23:37.188Z,85920.00
2018-02-16T11:24:37.221Z,74880.00
2018-02-16T11:25:37.234Z,59616.00
2018-02-16T11:26:37.267Z,19360.00
2018-02-16T11:27:37.289Z,12104.00
2018-02-16T11:28:37.307Z,14708.00
2018-02-16T11:29:37.337Z,63392.00
2018-02-16T11:30:37.356Z,25088.00
2018-02-16T11:31:37.384Z,37600.00
2018-02-16T11:32:37.408Z,12708.00
2018-02-16T11:33:37.434Z,14864.00
2018-02-16T11:34:37.451Z,13048.00
2018-02-16T11:35:37.482Z,20576.00
2018-02-16T11:36:37.501Z,74656.00
2018-02-16T11:37:37.523Z,9884.00
2018-02-16T11:38:37.552Z,7128.00
2018-02-16T11:39:37.578Z,8552.00
2018-02-16T11:40:37.594Z,86528.00
2018-02-16T11:41:37.624Z,88992.00
2018-02-16T11:42:37.640Z,90688.00
2018-02-16T11:43:37.664Z,91072.00
2018-02-16T11:44:37.693Z,91360.00
2018-02-16T11:45:37.716Z,91200.00
2018-02-16T11:46:37.734Z,88512.00
2018-02-16T11:47:37.758Z,87072.00
2018-02-16T11:48:37.787Z,84160.00
2018-02-16T11:49:37.811Z,19904.00
2018-02-16T11:50:37.832Z,11552.00
2018-02-16T11:51:37.858Z,18496.00
2018-02-16T11:52:37.885Z,19840.00
2018-02-16T11:53:37.903Z,79456.00
2018-02-16T11:54:37.934Z,85728.00
2018-02-16T11:55:37.953Z,10508.00
2018-02-16T11:56:37.983Z,82368.00
2018-02-16T11:57:38.007Z,85216.00
2018-02-16T11:58:38.028Z,84544.00
2018-02-16T11:59:38.052Z,82656.00
2018-02-16T12:00:38.082Z,80800.00
2018-02-16T12:01:38.130Z,84288.00
2018-02-16T12:02:38.127Z,82272.00
2018-02-16T12:03:38.157Z,82080.00
2018-02-16T12:04:38.185Z,83680.00
2018-02-16T12:05:38.211Z,83776.00
2018-02-16T12:06:38.276Z,81600.00
2018-02-16T12:07:38.258Z,81440.00
2018-02-16T12:08:38.291Z,78656.00
2018-02-16T12:09:38.312Z,75072.00
2018-02-16T12:10:38.341Z,74880.00
2018-02-16T12:11:38.364Z,80800.00
2018-02-16T12:12:38.397Z,81152.00
2018-02-16T12:13:38.422Z,83552.00
2018-02-16T12:14:38.445Z,82912.00
2018-02-16T12:15:38.472Z,81440.00
2018-02-16T12:16:38.504Z,82464.00
2018-02-16T12:17:38.526Z,85984.00
2018-02-16T12:18:38.557Z,82400.00
2018-02-16T12:19:38.583Z,80576.00
2018-02-16T12:20:38.614Z,79968.00
2018-02-16T12:21:38.634Z,77728.00
2018-02-16T12:22:38.668Z,80352.00
2018-02-16T12:23:38.691Z,84352.00
2018-02-16T12:24:38.724Z,81792.00
2018-02-16T12:25:38.753Z,84608.00
2018-02-16T12:26:38.777Z,86880.00
2018-02-16T12:27:38.804Z,77344.00
2018-02-16T12:28:38.838Z,77504.00
2018-02-16T12:29:38.860Z,27808.00
2018-02-16T12:30:38.894Z,80480.00
2018-02-16T12:31:38.916Z,76160.00
2018-02-16T12:32:38.951Z,32160.00
2018-02-16T12:33:38.972Z,46208.00
2018-02-16T12:34:39.008Z,78528.00